Time;durP1;ratioP1;P1;durP2;ratioP2;P2;SDS_P1;SDS_P2;PMS_P1;PMS_P2;Temp;Humidity;BMP_temperature;BMP_pressure;BME280_temperature;BME280_humidity;BME280_pressure;Samples;Min_cycle;Max_cycle;Signal;HPM_P1;HPM_P2
2021/06/12 00:00:17;;;;;;;25.00;23.00;;;24.40;94.60;;;;;;3602380;39;20497;-62
2021/06/12 00:02:44;;;;;;;24.77;22.90;;;24.40;94.60;;;;;;3596630;39;20515;-62
2021/06/12 00:05:12;;;;;;;26.27;24.27;;;24.40;94.60;;;;;;3595277;40;20569;-62
2021/06/12 00:07:39;;;;;;;26.57;24.63;;;24.40;94.60;;;;;;3595351;39;20489;-62
2021/06/12 00:10:11;;;;;;;25.33;23.53;;;24.40;94.60;;;;;;3594787;40;21073;-61
2021/06/12 00:12:38;;;;;;;26.17;24.20;;;24.40;94.60;;;;;;3596873;39;20542;-62
2021/06/12 00:15:09;;;;;;;26.67;24.57;;;24.40;94.60;;;;;;3598971;39;20489;-62
2021/06/12 00:17:37;;;;;;;26.53;24.60;;;24.40;94.60;;;;;;3588514;39;20485;-62
2021/06/12 00:20:07;;;;;;;24.73;22.90;;;24.40;94.60;;;;;;3586508;40;20469;-62
2021/06/12 00:22:35;;;;;;;26.47;24.57;;;24.40;94.60;;;;;;3595681;39;20578;-62
2021/06/12 00:25:03;;;;;;;25.93;23.70;;;24.40;94.60;;;;;;3595067;40;20512;-62
2021/06/12 00:27:30;;;;;;;24.67;22.87;;;24.40;94.60;;;;;;3596299;39;20541;-62
2021/06/12 00:29:57;;;;;;;25.73;23.80;;;24.40;94.60;;;;;;3601825;39;20481;-62
2021/06/12 00:32:26;;;;;;;24.53;22.60;;;24.40;94.60;;;;;;3597001;39;20565;-62
2021/06/12 00:35:03;;;;;;;24.80;22.70;;;24.40;94.60;;;;;;3594628;40;20495;-62
2021/06/12 00:37:31;;;;;;;25.37;23.43;;;24.40;94.60;;;;;;3595526;39;20762;-62
2021/06/12 00:39:58;;;;;;;25.03;23.10;;;24.40;94.60;;;;;;3595222;40;20484;-62
2021/06/12 00:42:26;;;;;;;25.50;23.63;;;24.40;94.60;;;;;;3596127;39;20522;-61
2021/06/12 00:44:52;;;;;;;24.70;22.90;;;24.40;94.60;;;;;;3605403;39;20886;-62
2021/06/12 00:47:20;;;;;;;24.90;23.00;;;24.40;94.60;;;;;;3605257;39;20877;-61
2021/06/12 00:49:50;;;;;;;23.97;22.13;;;24.40;94.60;;;;;;3604391;39;21176;-62
2021/06/12 00:52:16;;;;;;;24.60;22.73;;;24.40;94.60;;;;;;3604522;39;20562;-62
2021/06/12 00:54:43;;;;;;;24.70;22.90;;;24.40;94.60;;;;;;3601053;39;20693;-62
2021/06/12 00:57:11;;;;;;;26.47;24.43;;;24.40;94.60;;;;;;3595143;39;20478;-62
2021/06/12 00:59:38;;;;;;;25.20;23.23;;;24.40;94.60;;;;;;3599805;39;20480;-63
2021/06/12 01:02:06;;;;;;;25.33;23.37;;;24.40;94.60;;;;;;3596634;39;20481;-62
2021/06/12 01:04:36;;;;;;;25.10;23.20;;;24.40;94.60;;;;;;3594989;40;20480;-62
2021/06/12 01:07:05;;;;;;;24.27;22.57;;;24.40;94.60;;;;;;3595802;40;20481;-61
2021/06/12 01:09:31;;;;;;;25.03;23.07;;;24.40;94.60;;;;;;3596110;39;20497;-62
2021/06/12 01:12:07;;;;;;;25.03;23.23;;;24.40;94.60;;;;;;3601371;39;20472;-62
2021/06/12 01:14:41;;;;;;;25.57;23.67;;;24.40;94.60;;;;;;3604252;39;21135;-62
2021/06/12 01:17:18;;;;;;;24.03;22.27;;;24.40;94.60;;;;;;3600323;39;20474;-62
2021/06/12 01:20:08;;;;;;;25.00;23.07;;;24.40;94.60;;;;;;3593604;40;20477;-62
2021/06/12 01:22:51;;;;;;;25.43;23.53;;;24.40;94.60;;;;;;3594301;39;20474;-62
2021/06/12 01:25:28;;;;;;;25.10;23.20;;;24.40;94.60;;;;;;3594744;40;20509;-62
2021/06/12 01:28:30;;;;;;;26.67;24.60;;;24.40;94.60;;;;;;3603945;39;20476;-61
2021/06/12 01:30:59;;;;;;;25.30;23.50;;;24.40;94.60;;;;;;3596557;39;20497;-62
2021/06/12 01:33:28;;;;;;;26.90;24.63;;;24.40;94.60;;;;;;3594833;40;20481;-61
2021/06/12 01:36:03;;;;;;;25.30;23.50;;;24.40;94.60;;;;;;3595038;40;20489;-62
2021/06/12 01:38:33;;;;;;;23.50;21.90;;;24.40;94.60;;;;;;3583583;40;20875;-62
2021/06/12 01:41:09;;;;;;;26.50;24.60;;;24.40;94.50;;;;;;3587756;39;20645;-61
2021/06/12 01:43:39;;;;;;;25.30;23.10;;;24.40;94.50;;;;;;3604559;39;20479;-62
2021/06/12 01:46:12;;;;;;;24.93;23.03;;;24.40;94.50;;;;;;3593589;39;20464;-62
2021/06/12 01:48:42;;;;;;;25.83;23.97;;;24.40;94.50;;;;;;3605311;39;20472;-62
2021/06/12 01:51:10;;;;;;;25.13;22.90;;;24.40;94.60;;;;;;3604096;39;20926;-62
2021/06/12 01:53:40;;;;;;;25.47;23.63;;;24.40;94.50;;;;;;3593440;40;20468;-62
2021/06/12 01:56:09;;;;;;;24.80;23.00;;;24.40;94.50;;;;;;3595793;39;20484;-61
2021/06/12 01:58:39;;;;;;;25.80;23.80;;;24.40;94.50;;;;;;3595149;40;20479;-62
2021/06/12 02:01:10;;;;;;;25.43;23.73;;;24.40;94.50;;;;;;3597496;39;20496;-62
2021/06/12 02:03:39;;;;;;;24.63;22.87;;;24.40;94.50;;;;;;3595142;40;20721;-62
2021/06/12 02:06:10;;;;;;;24.60;22.90;;;24.40;94.50;;;;;;3596853;39;20476;-62
2021/06/12 02:08:39;;;;;;;26.60;24.60;;;24.40;94.50;;;;;;3595894;40;20476;-62
2021/06/12 02:11:08;;;;;;;26.70;24.80;;;24.40;94.50;;;;;;3596693;39;20882;-62
2021/06/12 02:13:37;;;;;;;25.17;23.33;;;24.40;94.50;;;;;;3596700;39;20574;-62
2021/06/12 02:16:08;;;;;;;25.97;24.13;;;24.40;94.50;;;;;;3596671;39;20476;-62
2021/06/12 02:18:38;;;;;;;24.50;22.87;;;24.40;94.50;;;;;;3596465;40;20560;-62
2021/06/12 02:21:05;;;;;;;25.17;23.33;;;24.40;94.50;;;;;;3596409;39;20485;-62
2021/06/12 02:23:37;;;;;;;25.60;23.70;;;24.40;94.50;;;;;;3595569;40;20476;-62
2021/06/12 02:26:07;;;;;;;25.63;23.43;;;24.40;94.50;;;;;;3596251;39;20481;-62
2021/06/12 02:28:36;;;;;;;26.63;24.40;;;24.40;94.50;;;;;;3596159;40;20508;-62
2021/06/12 02:31:06;;;;;;;26.43;24.53;;;24.40;94.50;;;;;;3596508;39;20570;-62
2021/06/12 02:33:36;;;;;;;25.23;23.50;;;24.40;94.50;;;;;;3595936;40;20740;-62
2021/06/12 02:36:05;;;;;;;24.93;23.23;;;24.40;94.50;;;;;;3596100;39;20476;-62
2021/06/12 02:38:32;;;;;;;25.93;23.70;;;24.40;94.50;;;;;;3595236;39;20525;-62
2021/06/12 02:41:02;;;;;;;24.97;23.20;;;24.40;94.50;;;;;;3596328;39;20500;-62
2021/06/12 02:43:29;;;;;;;26.40;24.50;;;24.40;94.90;;;;;;3595590;39;20531;-62
2021/06/12 02:45:57;;;;;;;25.07;23.17;;;24.40;94.50;;;;;;3598230;39;20562;-62
2021/06/12 02:48:28;;;;;;;27.63;25.67;;;24.40;94.50;;;;;;3596653;40;20581;-62
2021/06/12 02:51:00;;;;;;;24.43;22.93;;;24.40;94.50;;;;;;3596216;40;20531;-62
2021/06/12 02:53:29;;;;;;;25.63;23.70;;;24.40;94.50;;;;;;3596812;39;20477;-62
2021/06/12 02:56:01;;;;;;;26.20;24.20;;;24.40;94.50;;;;;;3596945;40;20485;-62
2021/06/12 02:58:29;;;;;;;26.67;24.67;;;24.40;94.50;;;;;;3606413;39;20476;-62
2021/06/12 03:00:57;;;;;;;25.53;23.80;;;24.40;94.40;;;;;;3598838;39;20477;-62
2021/06/12 03:03:25;;;;;;;26.03;24.30;;;24.40;94.40;;;;;;3604004;39;20583;-62
2021/06/12 03:05:55;;;;;;;27.00;25.10;;;24.40;94.40;;;;;;3606599;39;20503;-61
2021/06/12 03:08:27;;;;;;;26.40;24.50;;;24.40;94.40;;;;;;3596915;39;20481;-62
2021/06/12 03:10:54;;;;;;;26.03;24.13;;;24.40;94.40;;;;;;3598277;39;20489;-62
2021/06/12 03:13:26;;;;;;;26.17;24.37;;;24.40;94.40;;;;;;3594527;39;20489;-62
2021/06/12 03:15:56;;;;;;;26.23;24.23;;;24.40;94.40;;;;;;3591022;39;21117;-62
2021/06/12 03:18:25;;;;;;;26.43;24.63;;;24.40;94.40;;;;;;3601319;39;20509;-61
2021/06/12 03:20:55;;;;;;;26.33;24.47;;;24.40;94.40;;;;;;3595954;40;21003;-61
2021/06/12 03:23:28;;;;;;;25.80;23.90;;;24.40;94.40;;;;;;3605920;39;20483;-62
2021/06/12 03:25:56;;;;;;;26.20;24.30;;;24.40;94.40;;;;;;3606211;39;20481;-62
2021/06/12 03:28:23;;;;;;;25.23;23.43;;;24.40;94.30;;;;;;3596625;39;20504;-62
2021/06/12 03:30:50;;;;;;;26.33;24.47;;;24.40;94.30;;;;;;3595628;39;20485;-62
2021/06/12 03:33:17;;;;;;;26.53;24.73;;;24.40;94.40;;;;;;3601852;39;20487;-62
2021/06/12 03:35:46;;;;;;;26.03;24.23;;;24.40;94.30;;;;;;3606045;39;20464;-62
2021/06/12 03:38:15;;;;;;;25.60;23.90;;;24.40;94.30;;;;;;3595227;39;20498;-62
2021/06/12 03:40:43;;;;;;;25.90;24.10;;;24.40;94.30;;;;;;3601981;39;20488;-62
2021/06/12 03:43:12;;;;;;;26.33;24.53;;;24.40;94.30;;;;;;3605607;39;20488;-62
2021/06/12 03:45:42;;;;;;;26.37;24.57;;;24.40;94.30;;;;;;3604419;39;20528;-62
2021/06/12 03:48:12;;;;;;;25.10;23.40;;;24.40;94.30;;;;;;3595633;39;20485;-62
2021/06/12 03:50:42;;;;;;;26.60;24.60;;;24.40;94.30;;;;;;3595304;39;20898;-62
2021/06/12 03:53:10;;;;;;;27.57;25.40;;;24.40;94.30;;;;;;3604779;39;21122;-62
2021/06/12 03:55:37;;;;;;;27.27;25.27;;;24.40;94.40;;;;;;3601271;39;20571;-62
2021/06/12 03:58:06;;;;;;;26.87;24.77;;;24.40;94.60;;;;;;3595204;40;20473;-61
2021/06/12 04:00:35;;;;;;;26.50;24.60;;;24.40;94.30;;;;;;3597550;39;20565;-62
2021/06/12 04:03:03;;;;;;;27.50;25.60;;;24.40;94.20;;;;;;3604877;39;20854;-61
2021/06/12 04:05:30;;;;;;;26.17;23.93;;;24.40;94.30;;;;;;3596323;39;20469;-62
2021/06/12 04:07:57;;;;;;;25.93;24.30;;;24.40;94.20;;;;;;3605243;39;20874;-62
2021/06/12 04:10:24;;;;;;;27.47;25.17;;;24.40;94.20;;;;;;3593388;39;20489;-62
2021/06/12 04:12:51;;;;;;;25.53;23.83;;;24.40;94.20;;;;;;3603486;39;20475;-62
2021/06/12 04:15:20;;;;;;;25.90;24.20;;;24.40;94.20;;;;;;3595186;39;20485;-61
2021/06/12 04:17:49;;;;;;;26.00;24.30;;;24.40;94.20;;;;;;3598918;39;20489;-62
2021/06/12 04:20:17;;;;;;;26.50;24.53;;;24.40;94.20;;;;;;3596090;40;20517;-62
2021/06/12 04:22:44;;;;;;;26.87;24.87;;;24.40;94.20;;;;;;3596138;40;20488;-62
2021/06/12 04:25:12;;;;;;;27.07;25.27;;;24.40;94.20;;;;;;3595707;39;20489;-62
2021/06/12 04:27:40;;;;;;;26.10;24.27;;;24.40;94.20;;;;;;3594946;39;20492;-62
2021/06/12 04:30:09;;;;;;;26.43;24.53;;;24.40;94.20;;;;;;3595270;39;20485;-62
2021/06/12 04:32:37;;;;;;;29.00;27.10;;;24.40;94.20;;;;;;3598542;39;21009;-62
2021/06/12 04:35:06;;;;;;;27.53;25.60;;;24.40;94.20;;;;;;3594740;39;20491;-62
2021/06/12 04:37:33;;;;;;;27.03;25.13;;;24.40;94.20;;;;;;3594131;40;20578;-62
2021/06/12 04:40:00;;;;;;;27.77;25.87;;;24.40;94.20;;;;;;3586230;40;20471;-62
2021/06/12 04:42:29;;;;;;;25.87;24.17;;;24.40;94.20;;;;;;3595297;39;20504;-62
2021/06/12 04:44:56;;;;;;;26.90;25.10;;;24.40;94.20;;;;;;3594562;40;20489;-62
2021/06/12 04:47:24;;;;;;;26.50;24.70;;;24.40;94.20;;;;;;3600510;39;20484;-62
2021/06/12 04:49:54;;;;;;;26.93;24.97;;;24.40;94.10;;;;;;3595471;40;20744;-62
2021/06/12 04:52:22;;;;;;;26.57;24.47;;;24.40;94.10;;;;;;3600033;39;20913;-62
2021/06/12 04:54:50;;;;;;;26.97;25.07;;;24.40;94.10;;;;;;3604013;39;20493;-63
2021/06/12 04:57:18;;;;;;;26.60;24.80;;;24.40;94.10;;;;;;3591908;39;20475;-64
2021/06/12 04:59:45;;;;;;;26.97;25.23;;;24.40;94.10;;;;;;3606876;39;20499;-63
2021/06/12 05:02:12;;;;;;;26.90;25.00;;;24.40;94.10;;;;;;3603954;39;20529;-63
2021/06/12 05:04:40;;;;;;;25.93;24.13;;;24.40;94.10;;;;;;3597756;40;20481;-63
2021/06/12 05:07:08;;;;;;;26.87;24.90;;;24.40;94.10;;;;;;3598916;40;20497;-63
2021/06/12 05:09:35;;;;;;;26.40;24.60;;;24.40;94.10;;;;;;3598257;39;20500;-63
2021/06/12 05:12:03;;;;;;;26.50;24.70;;;24.40;94.10;;;;;;3597942;39;20481;-63
2021/06/12 05:14:30;;;;;;;27.10;25.23;;;24.40;94.20;;;;;;3596606;40;20489;-63
2021/06/12 05:17:01;;;;;;;28.20;25.90;;;24.40;94.20;;;;;;3601348;39;20736;-63
2021/06/12 05:19:29;;;;;;;25.90;24.00;;;24.40;94.20;;;;;;3596159;40;20759;-63
2021/06/12 05:21:57;;;;;;;26.60;24.80;;;24.40;94.20;;;;;;3599248;39;20484;-63
2021/06/12 05:24:25;;;;;;;27.17;25.23;;;24.40;94.20;;;;;;3597824;39;20715;-62
2021/06/12 05:26:53;;;;;;;26.03;24.23;;;24.40;94.20;;;;;;3599088;39;20476;-62
2021/06/12 05:29:20;;;;;;;26.80;24.90;;;24.50;94.30;;;;;;3605740;39;20488;-63
2021/06/12 05:31:48;;;;;;;25.83;24.03;;;24.40;94.40;;;;;;3604823;39;20488;-63
2021/06/12 05:34:15;;;;;;;24.47;22.83;;;24.40;94.40;;;;;;3604199;39;20488;-63
2021/06/12 05:36:45;;;;;;;25.37;23.30;;;24.40;94.50;;;;;;3604611;39;20472;-63
2021/06/12 05:39:12;;;;;;;25.03;23.40;;;24.40;94.50;;;;;;3604957;39;20561;-63
2021/06/12 05:41:42;;;;;;;22.97;21.37;;;24.40;94.50;;;;;;3595197;39;20529;-63
2021/06/12 05:44:09;;;;;;;24.10;22.50;;;24.40;94.50;;;;;;3590106;39;20480;-63
2021/06/12 05:46:36;;;;;;;24.83;23.00;;;24.40;94.50;;;;;;3597752;39;20493;-62
2021/06/12 05:49:04;;;;;;;24.80;23.10;;;24.40;94.50;;;;;;3596039;40;20469;-63
2021/06/12 05:51:32;;;;;;;23.80;22.30;;;24.40;94.50;;;;;;3596876;39;20487;-63
2021/06/12 05:53:59;;;;;;;25.20;23.60;;;24.40;94.80;;;;;;3605700;39;20492;-63
2021/06/12 05:56:27;;;;;;;27.07;24.53;;;24.40;94.50;;;;;;3598208;39;20489;-62
2021/06/12 05:58:56;;;;;;;24.17;22.60;;;24.40;94.50;;;;;;3590394;39;21028;-61
2021/06/12 06:01:22;;;;;;;23.63;22.13;;;24.40;94.50;;;;;;3605601;39;20489;-63
2021/06/12 06:03:50;;;;;;;25.50;23.60;;;24.40;94.50;;;;;;3596724;39;20469;-62
2021/06/12 06:06:18;;;;;;;24.33;22.70;;;24.40;94.40;;;;;;3594753;39;20483;-63
2021/06/12 06:08:44;;;;;;;23.53;21.93;;;24.40;94.40;;;;;;3604743;39;20468;-63
2021/06/12 06:11:12;;;;;;;22.60;21.20;;;24.40;94.40;;;;;;3599517;39;20500;-62
2021/06/12 06:13:41;;;;;;;23.57;22.07;;;24.40;94.30;;;;;;3584676;40;20494;-63
2021/06/12 06:16:10;;;;;;;23.63;22.00;;;24.40;94.30;;;;;;3591011;39;20482;-63
2021/06/12 06:18:39;;;;;;;22.97;21.57;;;24.40;94.30;;;;;;3594800;40;20473;-63
2021/06/12 06:21:08;;;;;;;24.30;22.50;;;24.40;94.30;;;;;;3595248;39;20581;-63
2021/06/12 06:23:36;;;;;;;25.17;23.23;;;24.40;94.30;;;;;;3595673;39;20826;-63
2021/06/12 06:26:03;;;;;;;22.27;20.87;;;24.40;94.30;;;;;;3594547;39;20511;-62
2021/06/12 06:28:31;;;;;;;22.60;21.20;;;24.50;94.40;;;;;;3594864;39;20500;-63
2021/06/12 06:30:58;;;;;;;23.40;21.90;;;24.40;94.40;;;;;;3595024;40;21132;-63
2021/06/12 06:33:27;;;;;;;22.93;21.50;;;24.40;94.40;;;;;;3583817;40;20488;-63
2021/06/12 06:35:53;;;;;;;23.87;22.27;;;24.40;94.50;;;;;;3570286;40;20483;-63
2021/06/12 06:38:21;;;;;;;22.57;21.17;;;24.40;94.50;;;;;;3580655;40;20732;-63
2021/06/12 06:40:49;;;;;;;21.80;20.50;;;24.50;94.60;;;;;;3582674;40;20883;-63
2021/06/12 06:43:17;;;;;;;21.07;19.67;;;24.40;94.60;;;;;;3574391;40;20698;-63
2021/06/12 06:45:45;;;;;;;21.27;20.10;;;24.50;94.60;;;;;;3580922;40;20490;-62
2021/06/12 06:48:13;;;;;;;20.33;19.03;;;24.50;94.70;;;;;;3572234;40;20800;-63
2021/06/12 06:50:42;;;;;;;21.27;19.97;;;24.50;94.70;;;;;;3572995;40;21120;-63
2021/06/12 06:53:09;;;;;;;22.10;20.70;;;24.50;94.70;;;;;;3573153;40;20924;-63
2021/06/12 06:55:37;;;;;;;21.80;20.50;;;24.50;94.80;;;;;;3571803;40;21281;-63
2021/06/12 06:58:03;;;;;;;23.00;21.57;;;24.50;94.80;;;;;;3579620;40;20494;-63
2021/06/12 07:00:31;;;;;;;25.77;23.87;;;24.50;94.80;;;;;;3582273;40;20521;-63
2021/06/12 07:02:59;;;;;;;23.70;22.00;;;24.50;94.80;;;;;;3599846;39;20572;-63
2021/06/12 07:05:27;;;;;;;24.83;22.60;;;24.50;94.90;;;;;;3603201;39;20495;-63
2021/06/12 07:07:55;;;;;;;25.13;22.90;;;24.50;95.00;;;;;;3600913;39;20484;-62
2021/06/12 07:10:23;;;;;;;23.07;21.47;;;24.50;95.00;;;;;;3596338;39;20469;-63
2021/06/12 07:12:49;;;;;;;21.83;20.33;;;24.50;95.10;;;;;;3593053;40;20494;-63
2021/06/12 07:15:17;;;;;;;22.57;21.27;;;24.50;95.10;;;;;;3591608;40;20534;-62
2021/06/12 07:17:44;;;;;;;23.23;21.10;;;24.50;95.10;;;;;;3592491;40;20493;-63
2021/06/12 07:20:13;;;;;;;22.30;20.70;;;24.50;95.10;;;;;;3592718;40;20481;-63
2021/06/12 07:22:39;;;;;;;20.20;18.80;;;24.50;95.10;;;;;;3592516;40;20586;-63
2021/06/12 07:25:08;;;;;;;21.87;20.47;;;24.50;95.20;;;;;;3591153;40;20574;-63
2021/06/12 07:27:36;;;;;;;21.17;19.50;;;24.50;95.50;;;;;;3592089;40;20506;-63
2021/06/12 07:30:05;;;;;;;22.63;20.77;;;24.50;95.20;;;;;;3591838;40;20519;-63
2021/06/12 07:32:33;;;;;;;22.07;20.60;;;24.50;95.20;;;;;;3591323;40;20476;-64
2021/06/12 07:35:01;;;;;;;21.53;20.13;;;24.60;95.20;;;;;;3591908;40;20566;-63
2021/06/12 07:37:28;;;;;;;22.10;20.17;;;24.50;95.20;;;;;;3591236;40;20477;-63
2021/06/12 07:39:56;;;;;;;21.97;20.57;;;24.60;95.30;;;;;;3591942;40;20602;-63
2021/06/12 07:42:25;;;;;;;22.70;20.90;;;24.50;95.30;;;;;;3593327;40;20474;-64
2021/06/12 07:44:52;;;;;;;21.80;20.40;;;24.50;95.30;;;;;;3593207;40;20472;-62
2021/06/12 07:47:19;;;;;;;23.30;21.80;;;24.60;95.30;;;;;;3591775;40;20485;-64
2021/06/12 07:49:47;;;;;;;21.23;19.73;;;24.60;95.30;;;;;;3592872;40;20525;-64
2021/06/12 07:52:15;;;;;;;20.80;19.60;;;24.60;95.30;;;;;;3589450;40;20483;-63
2021/06/12 07:54:42;;;;;;;21.07;19.87;;;24.50;95.30;;;;;;3592500;40;20465;-64
2021/06/12 07:57:09;;;;;;;20.07;18.77;;;24.60;95.30;;;;;;3591215;40;20500;-64
2021/06/12 07:59:38;;;;;;;22.47;21.17;;;24.60;95.30;;;;;;3591102;39;20477;-63
2021/06/12 08:02:05;;;;;;;21.27;19.87;;;24.50;95.30;;;;;;3591019;40;20470;-64
2021/06/12 08:04:33;;;;;;;21.90;20.60;;;24.60;95.30;;;;;;3590782;40;20477;-63
2021/06/12 08:06:59;;;;;;;25.23;23.23;;;24.50;95.30;;;;;;3589546;39;20538;-63
2021/06/12 08:09:26;;;;;;;25.17;22.70;;;24.50;95.30;;;;;;3591647;40;20875;-63
2021/06/12 08:11:54;;;;;;;30.67;27.87;;;24.60;95.30;;;;;;3592491;40;20470;-62
2021/06/12 08:14:21;;;;;;;36.40;32.83;;;24.60;95.30;;;;;;3590992;40;20846;-63
2021/06/12 08:16:51;;;;;;;41.43;35.57;;;24.60;95.40;;;;;;3590560;40;20488;-63
2021/06/12 08:19:17;;;;;;;40.10;35.90;;;24.60;95.40;;;;;;3592313;40;20507;-63
2021/06/12 08:21:46;;;;;;;40.40;36.63;;;24.60;95.40;;;;;;3591955;40;20488;-63
2021/06/12 08:24:13;;;;;;;38.73;35.17;;;24.60;95.50;;;;;;3589953;40;20488;-62
2021/06/12 08:26:41;;;;;;;39.20;35.53;;;24.60;95.50;;;;;;3590753;40;20774;-62
2021/06/12 08:29:08;;;;;;;36.70;33.17;;;24.60;95.60;;;;;;3592117;40;20496;-63
2021/06/12 08:31:37;;;;;;;37.37;33.90;;;24.60;95.60;;;;;;3591811;40;20497;-63
2021/06/12 08:34:05;;;;;;;33.67;30.90;;;24.60;95.70;;;;;;3591008;40;20477;-62
2021/06/12 08:36:31;;;;;;;35.50;32.43;;;24.60;95.70;;;;;;3589727;40;20477;-63
2021/06/12 08:38:58;;;;;;;33.43;30.63;;;24.60;95.70;;;;;;3591425;40;20473;-63
2021/06/12 08:41:27;;;;;;;32.57;29.83;;;24.60;95.80;;;;;;3590660;40;20481;-62
2021/06/12 08:44:01;;;;;;;31.63;29.10;;;24.60;95.80;;;;;;3591074;40;20578;-63
2021/06/12 08:46:30;;;;;;;29.20;27.17;;;24.60;95.80;;;;;;3590710;40;20484;-63
2021/06/12 08:48:58;;;;;;;30.53;28.17;;;24.60;95.80;;;;;;3590793;40;20481;-63
2021/06/12 08:51:27;;;;;;;29.17;27.07;;;24.60;95.80;;;;;;3591088;40;20496;-63
2021/06/12 08:53:54;;;;;;;30.63;28.40;;;24.60;95.80;;;;;;3591797;40;20933;-63
2021/06/12 08:56:22;;;;;;;29.27;27.07;;;24.60;95.80;;;;;;3590794;40;20473;-63
2021/06/12 08:58:50;;;;;;;27.73;25.70;;;24.60;95.80;;;;;;3590634;40;20751;-63
2021/06/12 09:01:18;;;;;;;29.33;27.17;;;24.60;95.80;;;;;;3589629;40;20967;-63
2021/06/12 09:03:46;;;;;;;28.87;26.80;;;24.60;95.80;;;;;;3591016;40;20481;-63
2021/06/12 09:06:18;;;;;;;27.23;24.93;;;24.60;95.80;;;;;;3591230;40;20806;-63
2021/06/12 09:08:47;;;;;;;26.83;24.97;;;24.60;95.80;;;;;;3590677;40;20765;-62
2021/06/12 09:11:17;;;;;;;28.33;26.20;;;24.60;95.80;;;;;;3589836;39;21071;-63
2021/06/12 09:13:47;;;;;;;27.57;25.60;;;24.60;96.10;;;;;;3590150;40;20497;-63
2021/06/12 09:16:30;;;;;;;26.23;24.43;;;24.60;95.80;;;;;;3589055;40;20493;-62
2021/06/12 09:19:03;;;;;;;27.03;25.10;;;24.60;95.80;;;;;;3590426;40;20874;-63
2021/06/12 09:21:31;;;;;;;25.87;24.10;;;24.60;95.80;;;;;;3590388;40;20570;-62
2021/06/12 09:24:01;;;;;;;26.40;24.60;;;24.60;95.80;;;;;;3590171;40;20492;-63
2021/06/12 09:26:44;;;;;;;26.23;24.43;;;24.70;95.90;;;;;;3591415;40;20569;-61
2021/06/12 09:29:13;;;;;;;25.13;23.53;;;24.70;95.90;;;;;;3591030;40;20485;-63
2021/06/12 09:31:46;;;;;;;25.37;23.83;;;24.60;95.90;;;;;;3590309;40;20487;-63
2021/06/12 09:34:16;;;;;;;26.00;24.20;;;24.70;95.90;;;;;;3591811;40;20507;-63
2021/06/12 09:36:44;;;;;;;25.77;23.97;;;24.60;95.90;;;;;;3590875;40;20497;-63
2021/06/12 09:39:15;;;;;;;25.43;23.77;;;24.60;95.90;;;;;;3590543;40;20486;-63
2021/06/12 09:41:44;;;;;;;25.40;23.70;;;24.70;96.00;;;;;;3589445;40;21196;-63
2021/06/12 09:44:28;;;;;;;26.63;24.83;;;24.60;96.00;;;;;;3589283;40;20473;-63
2021/06/12 09:46:56;;;;;;;27.10;24.57;;;24.60;96.00;;;;;;3590195;40;20630;-63
2021/06/12 09:49:31;;;;;;;25.10;23.50;;;24.70;96.10;;;;;;3590122;40;20812;-63
2021/06/12 09:52:08;;;;;;;25.13;23.43;;;24.60;96.10;;;;;;3589645;40;20476;-63
2021/06/12 09:54:42;;;;;;;25.40;23.50;;;24.70;96.10;;;;;;3580802;40;20884;-63
2021/06/12 09:57:11;;;;;;;27.60;25.80;;;24.60;96.10;;;;;;3589123;40;20504;-63
2021/06/12 09:59:40;;;;;;;26.67;24.87;;;24.70;96.20;;;;;;3588934;40;20485;-63
2021/06/12 10:02:08;;;;;;;27.30;25.50;;;24.70;96.20;;;;;;3589841;40;20529;-63
2021/06/12 10:04:36;;;;;;;24.93;23.33;;;24.70;96.50;;;;;;3589609;40;20470;-63
2021/06/12 10:07:14;;;;;;;25.37;23.67;;;24.60;96.20;;;;;;3588770;40;20582;-63
2021/06/12 10:09:46;;;;;;;23.97;22.33;;;24.70;96.30;;;;;;3587925;40;20658;-63
2021/06/12 10:12:24;;;;;;;26.20;24.13;;;24.70;96.30;;;;;;3588614;40;20484;-63
2021/06/12 10:14:57;;;;;;;24.03;22.37;;;24.70;96.30;;;;;;3587295;40;20585;-63
2021/06/12 10:17:45;;;;;;;24.97;23.37;;;24.70;96.20;;;;;;3587984;40;20618;-63
2021/06/12 10:20:22;;;;;;;24.37;22.67;;;24.70;96.30;;;;;;3588960;40;20492;-62
2021/06/12 10:22:53;;;;;;;25.53;23.63;;;24.60;96.20;;;;;;3588853;39;21245;-62
2021/06/12 10:25:30;;;;;;;25.57;23.87;;;24.70;96.30;;;;;;3589475;40;20488;-63
2021/06/12 10:28:04;;;;;;;25.00;23.27;;;24.70;96.30;;;;;;3588647;40;20776;-63
2021/06/12 10:30:34;;;;;;;24.27;22.50;;;24.70;96.30;;;;;;3586969;40;20535;-63
2021/06/12 10:33:03;;;;;;;24.60;22.90;;;24.70;96.30;;;;;;3583447;39;20511;-63
2021/06/12 10:35:30;;;;;;;24.43;22.83;;;24.70;96.30;;;;;;3587420;39;20484;-63
2021/06/12 10:38:02;;;;;;;25.07;23.17;;;24.70;96.30;;;;;;3587218;39;20488;-63
2021/06/12 10:40:41;;;;;;;23.97;22.37;;;24.70;96.60;;;;;;3595498;39;21349;-63
2021/06/12 10:43:10;;;;;;;24.67;22.80;;;24.70;96.30;;;;;;3588867;40;21134;-62
2021/06/12 10:45:38;;;;;;;24.93;23.23;;;24.70;96.30;;;;;;3588588;40;20469;-63
2021/06/12 10:48:05;;;;;;;22.80;21.23;;;24.70;96.30;;;;;;3588746;40;20512;-61
2021/06/12 10:50:41;;;;;;;23.30;21.60;;;24.70;96.30;;;;;;3589364;40;20505;-62
2021/06/12 10:53:16;;;;;;;24.00;22.40;;;24.70;96.30;;;;;;3592183;39;20476;-63
2021/06/12 10:55:45;;;;;;;23.03;21.47;;;24.70;96.30;;;;;;3599362;39;20838;-62
2021/06/12 10:58:41;;;;;;;23.90;22.30;;;24.70;96.30;;;;;;3598632;39;20677;-62
2021/06/12 11:01:13;;;;;;;23.90;22.30;;;24.70;96.30;;;;;;3599212;39;20515;-63
2021/06/12 11:03:46;;;;;;;23.33;21.73;;;24.70;96.30;;;;;;3599338;39;20485;-62
2021/06/12 11:06:42;;;;;;;22.80;21.20;;;24.70;96.30;;;;;;3598206;39;20853;-62
2021/06/12 11:09:34;;;;;;;23.00;21.43;;;24.70;96.30;;;;;;3599163;39;20987;-64
2021/06/12 11:12:03;;;;;;;22.27;20.70;;;24.70;96.30;;;;;;3592683;39;20815;-62
2021/06/12 11:14:33;;;;;;;23.00;21.47;;;24.70;96.30;;;;;;3601367;39;20492;-63
2021/06/12 11:17:16;;;;;;;22.87;21.33;;;24.70;96.30;;;;;;3601057;39;20481;-62
2021/06/12 11:19:44;;;;;;;21.43;20.03;;;24.70;96.40;;;;;;3600269;39;20569;-62
2021/06/12 11:22:29;;;;;;;23.33;21.63;;;24.70;96.40;;;;;;3599687;39;20479;-62
2021/06/12 11:24:58;;;;;;;21.97;20.57;;;24.70;96.40;;;;;;3599225;39;20766;-63
2021/06/12 11:27:29;;;;;;;22.70;21.30;;;24.70;96.30;;;;;;3599645;39;20486;-62
2021/06/12 11:30:26;;;;;;;22.53;21.00;;;24.70;96.30;;;;;;3595251;39;20544;-63
2021/06/12 11:33:09;;;;;;;23.00;21.30;;;24.70;96.40;;;;;;3555419;40;20598;-63
2021/06/12 11:35:41;;;;;;;22.40;20.90;;;24.70;96.40;;;;;;3585771;39;20485;-63
2021/06/12 11:38:10;;;;;;;22.33;20.93;;;24.70;96.30;;;;;;3590037;40;20944;-63
2021/06/12 11:40:38;;;;;;;21.73;20.33;;;24.70;96.30;;;;;;3589620;40;20601;-63
2021/06/12 11:43:06;;;;;;;22.37;20.97;;;24.70;96.30;;;;;;3588234;40;20500;-63
2021/06/12 11:45:35;;;;;;;21.10;19.60;;;24.70;96.30;;;;;;3588744;40;20496;-63
2021/06/12 11:48:18;;;;;;;21.13;19.73;;;24.70;96.40;;;;;;3579536;40;20496;-62
2021/06/12 11:50:45;;;;;;;21.13;19.53;;;24.70;96.50;;;;;;3585338;40;20787;-64
2021/06/12 11:53:16;;;;;;;19.77;18.53;;;24.80;96.50;;;;;;3590280;40;20478;-64
2021/06/12 11:55:43;;;;;;;17.60;16.50;;;24.70;96.60;;;;;;3589595;40;20489;-64
2021/06/12 11:58:12;;;;;;;17.53;16.23;;;24.70;96.60;;;;;;3588213;40;20477;-64
2021/06/12 12:00:42;;;;;;;16.50;15.50;;;24.80;96.60;;;;;;3587306;40;20472;-64
2021/06/12 12:03:10;;;;;;;16.13;14.93;;;24.80;96.50;;;;;;3588131;40;21186;-64
2021/06/12 12:05:38;;;;;;;14.77;13.87;;;24.80;96.50;;;;;;3588284;40;20504;-64
2021/06/12 12:08:08;;;;;;;16.27;15.17;;;24.80;96.40;;;;;;3588210;40;20485;-64
2021/06/12 12:10:35;;;;;;;14.60;13.90;;;24.80;96.40;;;;;;3586487;40;20578;-64
2021/06/12 12:13:02;;;;;;;14.27;13.47;;;24.80;96.30;;;;;;3587145;40;20892;-64
2021/06/12 12:15:51;;;;;;;14.30;13.50;;;24.80;96.30;;;;;;3587951;40;20484;-64
2021/06/12 12:18:18;;;;;;;13.70;13.10;;;24.80;96.30;;;;;;3584971;40;20489;-64
2021/06/12 12:20:47;;;;;;;13.33;12.73;;;24.80;96.20;;;;;;3586569;40;20672;-64
2021/06/12 12:23:23;;;;;;;14.10;13.40;;;24.80;96.20;;;;;;3588385;40;20484;-64
2021/06/12 12:25:52;;;;;;;12.73;12.03;;;24.80;96.20;;;;;;3589148;40;20505;-64
2021/06/12 12:28:21;;;;;;;14.23;13.33;;;24.80;96.20;;;;;;3588949;40;20485;-64
2021/06/12 12:30:48;;;;;;;13.17;12.53;;;24.80;96.10;;;;;;3588893;40;20473;-64
2021/06/12 12:33:18;;;;;;;14.90;14.10;;;24.80;96.10;;;;;;3589775;40;20932;-64
2021/06/12 12:35:46;;;;;;;13.30;12.70;;;24.80;96.10;;;;;;3586757;40;20501;-64
2021/06/12 12:38:18;;;;;;;12.67;12.10;;;24.80;96.10;;;;;;3588802;40;20499;-64
2021/06/12 12:40:45;;;;;;;12.83;12.13;;;24.80;96.00;;;;;;3590254;40;20760;-64